Bayonne, NJ (07002)

6:34 PM EST on January 28, 2015 (GMT -0500)
West Brighton | Change Station
CLOSE
Current Station
Personal Weather Station
Location: Staten Island, NY
Elevation: 121 ft
Nearby Weather Stations

Elev 121 ft 40.63 °N, 74.11 °W | Updated 7 minutes ago

Partly Cloudy
Partly Cloudy
28.8 °F
Feels Like 29 °F
N
2.7
Wind Variable Wind from West

Today
High -- | Low -- °F
--% Chance of Precip.
Yesterday
High -- | Low -- °F
Precip. -- in
7:10 AM 5:09 PM
Waxing Gibbous, 69% visible
Pressure 30.17 in
Visibility 10.0 miles
Clouds Few 25000 ft
Windchill 29 °F
Dew Point 11 °F
Humidity 46%
Rainfall 0.04 in
Snow Depth Not available.
UV 0 out of 12
Pollen .10 out of 12
Air Quality Not available.
Flu Activity Not available.
METAR KEWR 282251Z 31007KT 10SM FEW250 M01/M14 A3018 RMK AO2 SLP217 T10111144

More Conditions Fewer Conditions

Pressure 30.17 in
Visibility 10.0 miles
Clouds Few 25000 ft
Windchill 29 °F
Dew Point 11 °F
Humidity 46%
Rainfall 0.04 in
Snow Depth Not available.
UV 0 out of 12
Pollen .10 out of 12
Air Quality Not available.
Flu Activity Not available.
METAR KEWR 282251Z 31007KT 10SM FEW250 M01/M14 A3018 RMK AO2 SLP217 T10111144

More Conditions Fewer Conditions

10-Day Weather Forecast

Almanac

Astronomy

Jan. 28, 2015 Rise Set
Actual Time
Civil Twilight
Nautical Twilight
Astronomical Twilight
Moon
Length of Visible Light
Length of Day
Tomorrow will be .
, % of the Moon is Illuminated

Today's Extremes

State Highs State Lows

Community

WunderPhotos

Upload Photos

1,791,294 photos uploaded!

WunderBlogs® & News

Nearby

Air Quality

  Air Quality AQ Index Pollutant
Not available.

Snow Depth

Station Depth Elevation

Earthquake Activity

City Distance Mag. Time & Date
Minimum magnitude displayed is 2.5.

Coastal Water Temperatures

Place Temperature

Nearby Weather Stations